Raymore, Canada
Current Conditions -  °F | °C
As of 2:14 AM on Saturday 29 Nov 2014 (Local Time) from CYQR Reporting Station
Light Snow Light Snow  
Wind Chill: -15°   Ceiling: 1200
Heat Index:   Visibility: 0.75mi
Dew Point:   Wind: 20mph
Humidity: 85%   Direction: 300°WNW
Pressure: 29.52"   Gusts: 25mph
Location:  51.4°N, 104.53°W
Report Text: CYQR 290814Z 30017G22KT 3/4SM R13/P6000FT/D -SN BLSN OVC012 M15/M17 A2952 RMK SC8 SLP043
Loading
Personal Weather Stations






























Interactive Weather Map New forecast layout! Learn more

10-Day Weather Forecast

Advertisements
Track Severe Weather on mobile